Time;durP1;ratioP1;P1;durP2;ratioP2;P2;SDS_P1;SDS_P2;PMS_P1;PMS_P2;Temp;Humidity;BMP_temperature;BMP_pressure;BME280_temperature;BME280_humidity;BME280_pressure;Samples;Min_cycle;Max_cycle;Signal;HPM_P1;HPM_P2
2021/06/18 00:00:49;;;;;;;7.80;5.43;;;24.00;94.50;;;;;;5070365;28;20478;-77
2021/06/18 00:03:16;;;;;;;7.40;5.43;;;24.00;94.40;;;;;;5072320;28;20542;-77
2021/06/18 00:05:43;;;;;;;8.17;4.80;;;23.90;94.50;;;;;;5083206;28;20819;-77
2021/06/18 00:08:10;;;;;;;5.83;5.13;;;23.90;94.70;;;;;;5075374;28;20472;-77
2021/06/18 00:10:37;;;;;;;6.00;5.40;;;23.80;95.10;;;;;;5071581;28;20461;-77
2021/06/18 00:13:04;;;;;;;6.47;5.03;;;23.70;95.40;;;;;;5071981;28;20461;-77
2021/06/18 00:15:31;;;;;;;4.80;4.00;;;23.70;95.70;;;;;;5071852;28;20457;-78
2021/06/18 00:17:58;;;;;;;8.00;5.70;;;23.70;95.90;;;;;;5090425;28;20446;-77
2021/06/18 00:20:25;;;;;;;8.13;4.87;;;23.70;95.90;;;;;;5091481;28;20889;-77
2021/06/18 00:22:52;;;;;;;6.53;5.27;;;23.70;95.90;;;;;;5077202;28;20451;-77
2021/06/18 00:25:19;;;;;;;8.53;6.60;;;23.70;95.90;;;;;;5071202;28;20482;-77
2021/06/18 00:27:45;;;;;;;11.10;5.00;;;23.70;96.10;;;;;;5071581;28;20516;-77
2021/06/18 00:30:13;;;;;;;10.30;5.90;;;23.70;96.00;;;;;;5071193;28;20969;-77
2021/06/18 00:32:41;;;;;;;9.80;5.67;;;23.60;96.30;;;;;;5071557;28;20429;-77
2021/06/18 00:35:08;;;;;;;8.07;5.60;;;23.50;96.50;;;;;;5069958;28;20422;-77
2021/06/18 00:37:35;;;;;;;8.63;5.40;;;23.50;96.60;;;;;;5083176;28;20459;-77
2021/06/18 00:40:04;;;;;;;6.33;5.53;;;23.50;96.70;;;;;;5091725;28;20786;-77
2021/06/18 00:42:32;;;;;;;8.40;6.50;;;23.60;96.70;;;;;;5091770;28;20422;-77
2021/06/18 00:44:58;;;;;;;7.20;6.07;;;23.60;96.70;;;;;;5085316;28;20431;-77
2021/06/18 00:47:27;;;;;;;10.40;5.40;;;23.60;96.50;;;;;;5086818;28;20423;-77
2021/06/18 00:49:55;;;;;;;8.63;6.37;;;23.50;96.70;;;;;;5071392;28;20427;-77
2021/06/18 00:52:22;;;;;;;11.77;6.27;;;23.50;96.90;;;;;;5081680;28;20437;-77
2021/06/18 00:54:51;;;;;;;9.07;5.90;;;23.40;96.90;;;;;;5091593;28;20842;-77
2021/06/18 00:57:18;;;;;;;7.70;5.40;;;23.50;97.30;;;;;;5091044;28;20453;-78
2021/06/18 00:59:45;;;;;;;9.10;5.80;;;23.50;97.20;;;;;;5091546;28;20824;-78
2021/06/18 01:02:12;;;;;;;10.13;6.63;;;23.40;97.60;;;;;;5091302;28;20465;-77
2021/06/18 01:04:40;;;;;;;11.07;6.77;;;23.30;98.00;;;;;;5091694;28;20518;-77
2021/06/18 01:07:19;;;;;;;7.93;6.70;;;23.30;98.00;;;;;;5090299;28;20471;-77
2021/06/18 01:10:19;;;;;;;7.80;6.80;;;23.30;98.20;;;;;;5091810;28;20441;-77
2021/06/18 01:13:18;;;;;;;9.30;7.63;;;23.30;98.40;;;;;;5072976;28;20454;-77
2021/06/18 01:15:50;;;;;;;7.57;6.63;;;23.40;98.20;;;;;;5070884;28;20461;-77
2021/06/18 01:18:29;;;;;;;9.37;7.30;;;23.50;98.10;;;;;;5071215;28;20518;-77
2021/06/18 01:21:18;;;;;;;8.33;6.67;;;23.50;98.60;;;;;;5071743;28;20458;-77
2021/06/18 01:24:12;;;;;;;8.20;6.90;;;23.50;98.30;;;;;;5071620;28;20428;-77
2021/06/18 01:27:13;;;;;;;8.40;6.73;;;23.50;98.60;;;;;;5070611;28;20938;-77
2021/06/18 01:29:44;;;;;;;9.77;7.33;;;23.40;98.30;;;;;;5071752;28;20441;-78
2021/06/18 01:32:17;;;;;;;8.07;6.23;;;23.30;98.40;;;;;;5071029;28;20486;-77
2021/06/18 01:34:45;;;;;;;8.87;6.80;;;23.30;98.80;;;;;;5071743;28;20451;-77
2021/06/18 01:37:16;;;;;;;7.70;6.40;;;23.20;99.30;;;;;;5082218;28;20467;-77
2021/06/18 01:39:46;;;;;;;8.00;7.20;;;23.10;99.80;;;;;;5095557;28;20529;-77
2021/06/18 01:42:14;;;;;;;14.50;7.90;;;23.10;99.90;;;;;;5094621;28;20820;-77
2021/06/18 01:44:42;;;;;;;12.13;8.13;;;23.00;99.90;;;;;;5095167;28;20469;-77
2021/06/18 01:47:11;;;;;;;10.50;8.50;;;23.00;99.90;;;;;;5098707;28;20470;-77
2021/06/18 01:49:41;;;;;;;11.60;8.97;;;23.00;99.90;;;;;;5074734;28;20527;-77
2021/06/18 01:52:10;;;;;;;10.27;9.00;;;23.00;99.90;;;;;;5074629;28;20465;-77
2021/06/18 01:54:39;;;;;;;10.43;9.40;;;22.90;99.90;;;;;;5074320;28;20488;-77
2021/06/18 01:57:08;;;;;;;14.60;8.80;;;23.00;99.90;;;;;;5074038;28;20471;-77
2021/06/18 01:59:36;;;;;;;9.87;8.87;;;23.00;99.90;;;;;;5074308;28;20440;-77
2021/06/18 02:02:06;;;;;;;9.63;8.73;;;23.00;99.90;;;;;;5085957;28;20469;-77
2021/06/18 02:04:36;;;;;;;9.97;8.90;;;22.90;99.90;;;;;;5094331;28;20425;-77
2021/06/18 02:07:04;;;;;;;10.53;8.83;;;23.00;99.90;;;;;;5093177;28;20548;-77
2021/06/18 02:09:33;;;;;;;9.43;8.50;;;23.00;99.90;;;;;;5094397;28;20442;-77
2021/06/18 02:12:00;;;;;;;10.57;9.47;;;23.00;99.90;;;;;;5093832;28;20468;-77
2021/06/18 02:14:30;;;;;;;11.07;8.20;;;23.00;99.90;;;;;;5091296;28;20997;-77
2021/06/18 02:17:00;;;;;;;10.17;9.27;;;23.10;99.90;;;;;;5073441;28;20458;-77
2021/06/18 02:19:29;;;;;;;10.60;8.13;;;23.00;99.90;;;;;;5073970;28;20978;-77
2021/06/18 02:21:57;;;;;;;15.73;8.67;;;23.00;99.90;;;;;;5074508;28;20474;-77
2021/06/18 02:24:28;;;;;;;9.67;8.67;;;23.00;99.90;;;;;;5074370;28;20427;-77
2021/06/18 02:26:55;;;;;;;14.30;8.57;;;22.90;99.90;;;;;;5073141;28;20469;-77
2021/06/18 02:29:22;;;;;;;13.60;9.40;;;22.80;99.90;;;;;;5073577;28;20810;-77
2021/06/18 02:31:53;;;;;;;12.40;9.60;;;22.80;99.90;;;;;;5078851;28;20523;-77
2021/06/18 02:34:21;;;;;;;13.07;9.30;;;22.80;99.90;;;;;;5109637;28;20506;-77
2021/06/18 02:36:47;;;;;;;13.67;10.00;;;22.80;99.90;;;;;;5087495;28;20459;-77
2021/06/18 02:39:14;;;;;;;10.43;9.40;;;22.80;99.90;;;;;;5073320;28;20957;-76
2021/06/18 02:41:42;;;;;;;12.60;9.20;;;22.80;99.90;;;;;;5072933;28;20458;-76
2021/06/18 02:44:09;;;;;;;10.67;8.33;;;22.70;99.90;;;;;;5088491;28;20452;-77
2021/06/18 02:46:44;;;;;;;10.03;8.60;;;22.70;99.90;;;;;;5092824;28;20839;-76
2021/06/18 02:49:17;;;;;;;17.00;9.07;;;22.60;99.90;;;;;;5102681;22;21245;-74
2021/06/18 02:51:56;;;;;;;9.63;7.27;;;22.60;99.90;;;;;;5056125;28;20519;-74
2021/06/18 02:54:31;;;;;;;9.37;8.30;;;22.50;99.90;;;;;;5052082;28;20827;-73
2021/06/18 02:57:27;;;;;;;9.03;6.93;;;22.50;99.90;;;;;;5052719;28;20455;-74
2021/06/18 03:00:02;;;;;;;12.97;8.00;;;22.50;99.90;;;;;;5030710;28;20457;-73
2021/06/18 03:02:34;;;;;;;14.30;7.17;;;22.40;99.90;;;;;;5035388;28;20984;-74
2021/06/18 03:05:05;;;;;;;8.10;7.07;;;22.40;99.90;;;;;;5030474;28;20435;-73
2021/06/18 03:07:34;;;;;;;9.90;8.77;;;22.40;99.90;;;;;;5031234;28;20439;-74
2021/06/18 03:10:07;;;;;;;8.23;7.20;;;22.30;99.90;;;;;;5032389;28;20841;-74
2021/06/18 03:12:41;;;;;;;8.83;6.73;;;22.30;99.90;;;;;;5031838;28;20420;-74
2021/06/18 03:15:09;;;;;;;9.73;8.10;;;22.20;99.90;;;;;;5029917;28;20473;-75
2021/06/18 03:17:38;;;;;;;9.87;8.00;;;22.20;99.90;;;;;;5031478;28;20408;-74
2021/06/18 03:20:10;;;;;;;11.40;9.20;;;22.20;99.90;;;;;;5032158;28;20517;-74
2021/06/18 03:22:40;;;;;;;13.60;8.83;;;22.10;99.90;;;;;;5031566;28;20442;-73
2021/06/18 03:25:08;;;;;;;9.60;8.00;;;22.00;99.90;;;;;;5034105;28;20424;-74
2021/06/18 03:27:37;;;;;;;18.20;9.70;;;22.10;99.90;;;;;;5050934;28;20944;-74
2021/06/18 03:30:06;;;;;;;13.73;8.23;;;22.10;99.90;;;;;;5052643;28;20426;-74
2021/06/18 03:32:37;;;;;;;14.03;8.53;;;22.00;99.90;;;;;;5051288;28;20502;-74
2021/06/18 03:35:06;;;;;;;10.30;8.67;;;22.00;99.90;;;;;;5052106;28;20478;-73
2021/06/18 03:37:33;;;;;;;9.60;8.60;;;22.00;99.90;;;;;;5050720;28;20439;-73
2021/06/18 03:40:01;;;;;;;10.03;8.83;;;22.00;99.90;;;;;;5050385;28;20948;-74
2021/06/18 03:42:31;;;;;;;11.67;8.07;;;22.00;99.90;;;;;;5048185;28;20538;-74
2021/06/18 03:45:01;;;;;;;9.03;8.07;;;22.00;99.90;;;;;;5050550;28;20777;-75
2021/06/18 03:47:29;;;;;;;10.40;9.40;;;22.00;99.90;;;;;;5052193;28;20420;-74
2021/06/18 03:49:57;;;;;;;17.80;9.17;;;21.90;99.90;;;;;;5050825;28;20542;-75
2021/06/18 03:52:24;;;;;;;9.80;8.80;;;22.00;99.90;;;;;;5051339;28;20874;-73
2021/06/18 03:54:56;;;;;;;10.53;9.27;;;22.00;99.90;;;;;;5052011;28;20455;-74
2021/06/18 03:57:24;;;;;;;12.87;8.43;;;22.10;99.90;;;;;;5050216;28;20448;-74
2021/06/18 03:59:53;;;;;;;11.20;8.23;;;22.10;99.90;;;;;;5033137;28;20909;-74
2021/06/18 04:02:20;;;;;;;8.97;8.03;;;22.10;99.90;;;;;;5051960;28;20436;-73
2021/06/18 04:04:49;;;;;;;10.93;9.30;;;22.20;99.90;;;;;;5052055;28;20419;-74
2021/06/18 04:07:16;;;;;;;10.33;7.77;;;22.20;99.90;;;;;;5049913;28;20521;-74
2021/06/18 04:09:43;;;;;;;12.80;8.87;;;22.30;99.90;;;;;;5051798;28;20451;-74
2021/06/18 04:12:10;;;;;;;16.83;11.00;;;22.30;99.90;;;;;;5050148;28;20533;-74
2021/06/18 04:14:37;;;;;;;13.53;9.03;;;22.40;99.90;;;;;;5051703;28;20467;-74
2021/06/18 04:17:06;;;;;;;11.43;9.20;;;22.40;99.90;;;;;;5048772;28;20496;-74
2021/06/18 04:19:34;;;;;;;11.93;8.77;;;22.50;99.90;;;;;;5043115;28;20456;-74
2021/06/18 04:22:03;;;;;;;10.57;9.57;;;22.60;99.90;;;;;;5049109;28;20477;-73
2021/06/18 04:24:30;;;;;;;13.07;9.30;;;22.70;99.90;;;;;;5051554;28;20429;-74
2021/06/18 04:26:57;;;;;;;13.40;9.73;;;22.70;99.90;;;;;;5051126;28;20977;-74
2021/06/18 04:29:24;;;;;;;12.00;10.80;;;22.70;99.90;;;;;;5050764;28;20475;-73
2021/06/18 04:31:51;;;;;;;20.33;9.40;;;22.80;99.90;;;;;;5050855;28;20517;-74
2021/06/18 04:34:19;;;;;;;11.53;10.13;;;22.90;99.90;;;;;;5066809;28;20455;-75
2021/06/18 04:36:46;;;;;;;15.50;9.67;;;23.00;99.90;;;;;;5049899;28;20471;-74
2021/06/18 04:39:13;;;;;;;21.43;10.77;;;23.10;99.90;;;;;;5051077;28;20829;-74
2021/06/18 04:41:40;;;;;;;13.80;9.23;;;23.20;99.90;;;;;;5051102;28;20460;-73
2021/06/18 04:44:07;;;;;;;14.40;9.90;;;23.20;99.90;;;;;;5051436;28;20779;-74
2021/06/18 04:46:35;;;;;;;9.30;8.30;;;23.30;99.90;;;;;;5045918;28;20489;-74
2021/06/18 04:49:02;;;;;;;12.87;9.53;;;23.40;99.90;;;;;;5030138;28;20443;-73
2021/06/18 04:51:29;;;;;;;12.70;8.70;;;23.50;99.90;;;;;;5019509;28;20834;-74
2021/06/18 04:53:56;;;;;;;13.37;8.67;;;23.50;99.90;;;;;;5030329;28;20466;-74
2021/06/18 04:56:23;;;;;;;13.87;9.37;;;23.50;99.90;;;;;;5030923;28;20564;-74
2021/06/18 04:58:50;;;;;;;12.43;8.93;;;23.60;99.90;;;;;;5046465;28;20456;-74
2021/06/18 05:01:17;;;;;;;14.73;10.47;;;23.70;99.90;;;;;;5029807;28;20805;-74
2021/06/18 05:03:44;;;;;;;14.63;10.57;;;23.80;99.90;;;;;;5031512;28;20511;-74
2021/06/18 05:06:11;;;;;;;13.80;9.57;;;23.80;99.90;;;;;;5044759;28;20591;-74
2021/06/18 05:08:38;;;;;;;13.50;10.13;;;23.80;99.90;;;;;;5030743;28;20478;-74
2021/06/18 05:11:05;;;;;;;18.23;11.20;;;23.80;99.90;;;;;;5049555;28;20453;-73
2021/06/18 05:13:32;;;;;;;16.30;10.53;;;23.90;99.90;;;;;;5023458;28;20945;-73
2021/06/18 05:15:59;;;;;;;12.43;9.90;;;23.90;99.90;;;;;;5034367;28;20464;-74
2021/06/18 05:18:31;;;;;;;13.33;10.00;;;24.00;99.90;;;;;;5034979;28;20474;-73
2021/06/18 05:20:58;;;;;;;12.77;10.53;;;24.00;99.90;;;;;;5049891;28;20473;-74
2021/06/18 05:23:27;;;;;;;11.40;10.20;;;24.00;99.90;;;;;;5065031;28;20432;-73
2021/06/18 05:25:54;;;;;;;19.23;11.13;;;24.10;99.90;;;;;;5034648;28;20511;-74
2021/06/18 05:28:21;;;;;;;15.07;10.77;;;24.10;99.90;;;;;;5034648;28;20444;-74
2021/06/18 05:30:48;;;;;;;17.63;12.40;;;24.20;99.90;;;;;;5033400;28;20453;-74
2021/06/18 05:33:15;;;;;;;20.43;11.33;;;24.30;99.90;;;;;;5034925;28;20516;-74
2021/06/18 05:35:44;;;;;;;16.57;11.23;;;24.30;99.90;;;;;;5066091;28;20544;-74
2021/06/18 05:38:11;;;;;;;17.60;11.50;;;24.40;99.90;;;;;;5033556;28;20497;-74
2021/06/18 05:40:41;;;;;;;13.67;10.50;;;24.50;99.90;;;;;;5034174;28;20513;-74
2021/06/18 05:43:09;;;;;;;14.73;12.10;;;24.60;99.90;;;;;;5034591;28;20796;-74
2021/06/18 05:45:38;;;;;;;18.87;11.20;;;24.80;99.90;;;;;;5032338;28;20842;-75
2021/06/18 05:48:06;;;;;;;14.33;10.87;;;24.90;99.90;;;;;;5034569;28;20446;-74
2021/06/18 05:50:33;;;;;;;13.50;9.90;;;24.90;99.90;;;;;;5033950;28;20480;-74
2021/06/18 05:53:00;;;;;;;18.03;11.60;;;25.00;99.90;;;;;;5033316;28;20459;-73
2021/06/18 05:55:27;;;;;;;17.80;10.93;;;25.10;99.90;;;;;;5032517;28;20471;-75
2021/06/18 05:57:54;;;;;;;16.77;10.03;;;25.20;99.90;;;;;;5032750;28;20531;-74
2021/06/18 06:00:21;;;;;;;12.57;9.30;;;25.30;99.90;;;;;;5033925;28;20550;-75
2021/06/18 06:03:05;;;;;;;13.17;10.50;;;25.40;99.90;;;;;;5033127;28;20444;-74
2021/06/18 06:05:32;;;;;;;11.17;10.07;;;25.60;99.90;;;;;;5043523;28;20447;-74
2021/06/18 06:07:59;;;;;;;17.33;12.27;;;25.70;99.90;;;;;;5030449;28;21020;-74
2021/06/18 06:10:41;;;;;;;14.63;13.10;;;25.90;99.90;;;;;;5037910;28;20812;-74
2021/06/18 06:13:08;;;;;;;15.50;11.40;;;26.30;99.90;;;;;;5044529;28;20423;-75
2021/06/18 06:15:35;;;;;;;14.00;10.90;;;26.60;99.90;;;;;;5035032;28;20806;-74
2021/06/18 06:18:05;;;;;;;12.57;11.37;;;26.90;99.90;;;;;;5046827;28;20451;-74
2021/06/18 06:20:32;;;;;;;13.53;12.07;;;27.10;97.70;;;;;;5053295;28;20498;-74
2021/06/18 06:22:59;;;;;;;11.20;10.13;;;27.30;96.50;;;;;;5036989;28;20462;-75
2021/06/18 06:25:26;;;;;;;13.80;11.13;;;27.30;96.70;;;;;;5033478;28;20551;-73
2021/06/18 06:27:53;;;;;;;17.90;11.10;;;27.30;95.80;;;;;;5033527;28;20440;-74
2021/06/18 06:30:20;;;;;;;11.63;9.40;;;27.30;95.30;;;;;;5047852;28;20560;-74
2021/06/18 06:32:47;;;;;;;11.30;9.73;;;27.30;96.90;;;;;;5014032;28;20492;-74
2021/06/18 06:35:15;;;;;;;12.47;8.87;;;27.20;96.90;;;;;;5013385;28;20464;-73
2021/06/18 06:37:42;;;;;;;14.00;11.47;;;27.20;95.90;;;;;;5056837;28;20446;-74
2021/06/18 06:40:11;;;;;;;16.03;13.17;;;27.20;95.80;;;;;;5048222;28;20803;-75
2021/06/18 06:42:39;;;;;;;13.53;11.13;;;27.30;95.80;;;;;;5032442;28;20428;-74
2021/06/18 06:45:06;;;;;;;10.10;8.53;;;27.10;96.00;;;;;;5064595;28;20941;-75
2021/06/18 06:47:33;;;;;;;12.40;9.47;;;27.00;96.90;;;;;;5018581;28;20448;-74
2021/06/18 06:50:00;;;;;;;12.50;9.63;;;26.80;97.30;;;;;;5012930;28;20443;-75
2021/06/18 06:52:30;;;;;;;11.07;8.47;;;26.60;98.00;;;;;;5055422;28;20543;-73
2021/06/18 06:54:57;;;;;;;13.67;8.70;;;26.40;99.70;;;;;;5023215;28;20460;-76
2021/06/18 06:57:24;;;;;;;11.73;9.00;;;26.30;99.90;;;;;;5013187;28;20425;-74
2021/06/18 06:59:51;;;;;;;15.10;9.43;;;26.20;99.90;;;;;;5013379;28;20451;-74
2021/06/18 07:02:18;;;;;;;11.90;8.33;;;26.10;99.90;;;;;;5029606;28;20482;-75
2021/06/18 07:04:45;;;;;;;13.63;8.93;;;26.00;99.50;;;;;;5034164;28;20434;-74
2021/06/18 07:07:13;;;;;;;15.33;10.03;;;26.00;99.00;;;;;;5042298;28;20877;-74
2021/06/18 07:09:40;;;;;;;11.87;9.20;;;25.80;99.50;;;;;;5033072;28;20455;-74
2021/06/18 07:12:09;;;;;;;12.43;10.23;;;25.80;99.90;;;;;;5064452;28;20464;-74
2021/06/18 07:14:39;;;;;;;16.00;9.80;;;25.70;99.90;;;;;;5032166;28;20468;-73
2021/06/18 07:17:09;;;;;;;13.83;10.07;;;25.60;99.90;;;;;;5062920;28;20531;-74
2021/06/18 07:19:37;;;;;;;13.70;10.00;;;25.60;99.90;;;;;;5032899;28;20543;-74
2021/06/18 07:22:04;;;;;;;13.87;10.07;;;25.40;99.90;;;;;;5030052;28;20517;-75
2021/06/18 07:24:31;;;;;;;12.97;9.97;;;25.30;99.90;;;;;;5032869;28;20913;-74
2021/06/18 07:27:00;;;;;;;11.67;9.63;;;25.20;99.90;;;;;;5062824;28;21049;-74
2021/06/18 07:29:27;;;;;;;11.87;8.90;;;25.10;99.90;;;;;;5064211;28;20453;-74
2021/06/18 07:31:57;;;;;;;12.17;10.57;;;25.10;99.90;;;;;;5016718;28;20461;-74
2021/06/18 07:34:24;;;;;;;10.37;9.13;;;25.00;99.90;;;;;;5043654;28;20421;-73
2021/06/18 07:36:52;;;;;;;21.03;11.47;;;25.10;99.90;;;;;;5027093;28;20560;-75
2021/06/18 07:39:19;;;;;;;12.67;10.40;;;25.10;99.90;;;;;;5049087;28;20443;-75
2021/06/18 07:41:46;;;;;;;15.00;10.33;;;25.10;99.90;;;;;;5048316;28;20554;-74
2021/06/18 07:44:13;;;;;;;13.10;10.73;;;25.10;99.90;;;;;;5032432;28;20412;-75
2021/06/18 07:46:40;;;;;;;13.50;10.77;;;25.00;99.90;;;;;;5007536;28;20496;-74
2021/06/18 07:49:08;;;;;;;20.87;12.80;;;25.20;99.90;;;;;;5010790;28;20867;-74
2021/06/18 07:51:40;;;;;;;13.50;12.03;;;25.30;99.90;;;;;;5032386;28;20461;-74
2021/06/18 07:54:07;;;;;;;23.47;10.80;;;25.40;99.90;;;;;;5017617;28;20452;-74
2021/06/18 07:56:40;;;;;;;22.07;11.10;;;25.40;99.90;;;;;;5030606;28;20547;-74
2021/06/18 07:59:11;;;;;;;23.03;10.50;;;25.50;99.90;;;;;;5030706;28;20452;-74
2021/06/18 08:01:38;;;;;;;20.73;12.00;;;25.60;99.90;;;;;;5013617;28;20555;-75
2021/06/18 08:04:08;;;;;;;15.30;10.50;;;25.70;99.90;;;;;;5030858;28;20428;-74
2021/06/18 08:06:36;;;;;;;19.60;10.03;;;25.90;99.90;;;;;;5026387;28;20882;-75
2021/06/18 08:09:04;;;;;;;17.60;11.17;;;26.00;99.90;;;;;;5019042;28;20452;-74
2021/06/18 08:11:34;;;;;;;18.23;11.33;;;26.10;99.90;;;;;;5043226;28;20487;-74
2021/06/18 08:14:01;;;;;;;18.17;9.80;;;26.20;99.90;;;;;;5066648;28;20958;-74
2021/06/18 08:16:28;;;;;;;23.60;11.17;;;26.20;99.90;;;;;;5062771;28;20478;-73
2021/06/18 08:18:55;;;;;;;20.73;11.17;;;26.20;99.90;;;;;;5051680;28;20491;-74
2021/06/18 08:21:22;;;;;;;15.83;10.80;;;26.20;99.90;;;;;;5038341;28;20496;-73
2021/06/18 08:23:49;;;;;;;15.63;9.60;;;26.20;99.90;;;;;;5032253;28;20420;-74
2021/06/18 08:26:16;;;;;;;16.17;9.60;;;26.20;99.30;;;;;;5047654;28;20447;-75
2021/06/18 08:28:43;;;;;;;16.87;10.43;;;26.20;99.20;;;;;;5050332;28;20952;-74
2021/06/18 08:31:10;;;;;;;18.40;10.07;;;26.10;99.30;;;;;;5016765;28;20468;-74
2021/06/18 08:33:38;;;;;;;18.60;9.73;;;26.20;99.90;;;;;;5012054;28;20420;-74
2021/06/18 08:36:06;;;;;;;17.70;10.17;;;26.30;99.90;;;;;;5010166;28;20479;-74
2021/06/18 08:38:35;;;;;;;19.10;9.53;;;26.30;99.90;;;;;;5025852;28;20476;-74
2021/06/18 08:41:04;;;;;;;19.20;10.33;;;26.50;98.80;;;;;;5026005;28;20594;-75
2021/06/18 08:43:32;;;;;;;15.17;10.90;;;26.70;98.30;;;;;;5031624;28;20463;-73
2021/06/18 08:46:02;;;;;;;19.13;9.07;;;26.70;97.60;;;;;;5034582;28;20498;-74
2021/06/18 08:48:30;;;;;;;15.53;9.87;;;26.80;97.10;;;;;;5035499;28;20810;-73
2021/06/18 08:50:58;;;;;;;14.73;10.10;;;26.80;97.90;;;;;;5037911;28;20838;-74
2021/06/18 08:53:26;;;;;;;15.10;10.43;;;26.70;97.40;;;;;;5033903;28;20594;-74
2021/06/18 08:55:56;;;;;;;16.00;10.93;;;26.70;97.90;;;;;;5035405;28;20817;-74
2021/06/18 08:58:23;;;;;;;15.63;10.20;;;26.80;97.10;;;;;;5034371;28;20455;-74
2021/06/18 09:00:51;;;;;;;14.37;8.33;;;26.80;96.90;;;;;;5034464;28;20460;-74
2021/06/18 09:03:44;;;;;;;18.83;9.60;;;26.90;96.30;;;;;;5055252;28;20479;-74
2021/06/18 09:06:18;;;;;;;20.87;10.97;;;27.20;95.70;;;;;;5054079;28;20562;-74
2021/06/18 09:09:06;;;;;;;16.57;9.83;;;27.30;94.80;;;;;;5014115;28;20450;-75
2021/06/18 09:11:53;;;;;;;17.87;10.00;;;27.40;94.10;;;;;;5015414;28;20465;-75
2021/06/18 09:14:25;;;;;;;12.70;9.70;;;27.50;93.00;;;;;;5015374;28;20519;-75
2021/06/18 09:17:01;;;;;;;16.37;10.00;;;27.60;93.40;;;;;;5032348;28;20985;-74
2021/06/18 09:19:29;;;;;;;14.97;8.47;;;27.70;92.50;;;;;;5014125;28;20480;-73
2021/06/18 09:22:05;;;;;;;11.90;8.20;;;27.80;91.60;;;;;;5020346;28;20871;-73
2021/06/18 09:24:38;;;;;;;12.30;8.40;;;27.70;90.30;;;;;;5035003;28;20515;-73
2021/06/18 09:27:11;;;;;;;11.80;8.90;;;27.70;90.40;;;;;;5031115;28;20988;-73
2021/06/18 09:29:39;;;;;;;11.87;9.33;;;27.70;90.50;;;;;;5029225;28;20511;-74
2021/06/18 09:32:13;;;;;;;14.23;9.67;;;27.80;90.20;;;;;;5014795;28;20467;-73
2021/06/18 09:35:00;;;;;;;12.63;10.17;;;27.80;90.80;;;;;;5061717;28;20489;-74
2021/06/18 09:37:32;;;;;;;14.47;10.10;;;27.90;91.90;;;;;;5041738;28;20460;-74
2021/06/18 09:40:11;;;;;;;16.20;9.63;;;27.90;92.30;;;;;;5034312;28;20463;-76
2021/06/18 09:42:47;;;;;;;13.07;10.20;;;28.10;92.00;;;;;;5033605;28;20432;-75
2021/06/18 09:45:23;;;;;;;10.97;8.90;;;28.20;91.10;;;;;;5033094;28;20462;-75
2021/06/18 09:47:51;;;;;;;14.57;9.83;;;28.20;89.00;;;;;;5014635;28;20473;-74
2021/06/18 09:50:25;;;;;;;14.60;8.83;;;28.30;90.10;;;;;;5014336;28;20461;-73
2021/06/18 09:53:11;;;;;;;13.37;9.70;;;28.40;90.60;;;;;;5015424;28;20437;-73
2021/06/18 09:55:43;;;;;;;13.57;9.93;;;28.50;90.00;;;;;;5017464;28;20475;-73
2021/06/18 09:58:11;;;;;;;11.83;8.90;;;28.70;85.70;;;;;;5033998;28;20450;-73
2021/06/18 10:00:39;;;;;;;10.20;9.00;;;28.80;87.40;;;;;;5054696;28;20557;-73
2021/06/18 10:03:10;;;;;;;13.37;9.40;;;28.80;87.30;;;;;;5054245;28;20529;-73
2021/06/18 10:05:39;;;;;;;10.37;8.83;;;28.90;86.30;;;;;;5030427;28;20740;-74
2021/06/18 10:08:07;;;;;;;11.00;7.90;;;29.10;85.80;;;;;;5035801;28;20460;-75
2021/06/18 10:10:36;;;;;;;11.07;7.67;;;29.00;84.30;;;;;;5032556;28;20463;-74
2021/06/18 10:13:04;;;;;;;13.40;8.23;;;29.10;80.50;;;;;;5034167;28;20930;-74
2021/06/18 10:15:36;;;;;;;12.47;8.17;;;29.10;82.30;;;;;;5021975;28;20877;-74
2021/06/18 10:18:10;;;;;;;11.53;7.60;;;29.20;80.70;;;;;;5028956;28;20457;-74
2021/06/18 10:20:37;;;;;;;7.60;6.90;;;29.30;76.80;;;;;;4996307;28;20484;-74
2021/06/18 10:23:17;;;;;;;14.07;8.30;;;29.50;75.70;;;;;;5011382;28;20749;-74
2021/06/18 10:25:53;;;;;;;8.73;7.70;;;29.60;77.80;;;;;;5033452;28;20471;-75
2021/06/18 10:28:26;;;;;;;7.77;6.80;;;29.80;76.60;;;;;;5033600;28;20450;-74
2021/06/18 10:31:00;;;;;;;9.73;6.90;;;29.80;76.80;;;;;;5038887;28;20467;-75
2021/06/18 10:33:28;;;;;;;7.63;6.37;;;29.70;73.20;;;;;;5032625;28;20419;-74
2021/06/18 10:36:09;;;;;;;11.37;7.60;;;29.60;72.10;;;;;;5033389;28;20471;-74
2021/06/18 10:38:42;;;;;;;7.13;6.53;;;29.60;73.90;;;;;;5051316;28;20459;-75
2021/06/18 10:41:18;;;;;;;8.90;6.83;;;29.40;73.60;;;;;;5053111;28;20469;-74
2021/06/18 10:43:47;;;;;;;12.77;7.10;;;29.30;74.10;;;;;;5052175;28;20517;-74
2021/06/18 10:46:37;;;;;;;6.77;5.90;;;29.30;71.80;;;;;;5049901;28;20458;-74
2021/06/18 10:49:11;;;;;;;10.40;6.33;;;29.20;70.40;;;;;;5015446;28;20459;-74
2021/06/18 10:51:44;;;;;;;8.60;5.50;;;29.20;70.00;;;;;;5041933;28;20470;-74
2021/06/18 10:54:16;;;;;;;11.43;6.80;;;29.10;70.20;;;;;;5053368;28;20514;-74
2021/06/18 10:56:48;;;;;;;7.73;6.00;;;29.10;72.10;;;;;;5052650;28;20843;-74
2021/06/18 10:59:26;;;;;;;8.03;6.70;;;29.00;70.30;;;;;;5053027;28;20459;-74
2021/06/18 11:01:54;;;;;;;9.30;6.60;;;29.00;71.20;;;;;;5050237;28;20467;-74
2021/06/18 11:04:36;;;;;;;12.73;6.10;;;28.90;71.50;;;;;;5067592;28;20762;-74
2021/06/18 11:07:25;;;;;;;9.13;7.40;;;28.90;71.50;;;;;;5039541;28;20469;-73
2021/06/18 11:09:55;;;;;;;10.93;8.47;;;29.00;72.60;;;;;;5029352;28;20444;-73
2021/06/18 11:12:22;;;;;;;9.83;6.57;;;29.10;73.10;;;;;;5031137;28;20579;-74
2021/06/18 11:14:54;;;;;;;7.60;6.90;;;29.30;67.80;;;;;;5031394;28;20446;-74
2021/06/18 11:17:40;;;;;;;6.97;6.27;;;29.30;68.40;;;;;;5039878;28;20490;-74
2021/06/18 11:20:16;;;;;;;8.67;7.20;;;29.40;70.80;;;;;;5050988;28;20426;-75
2021/06/18 11:22:54;;;;;;;10.93;7.80;;;29.50;71.50;;;;;;5032445;28;20785;-74
2021/06/18 11:25:36;;;;;;;8.87;6.27;;;29.70;69.90;;;;;;5031001;28;21031;-74
2021/06/18 11:28:22;;;;;;;10.40;6.67;;;29.90;70.80;;;;;;5032604;28;20851;-75
2021/06/18 11:30:58;;;;;;;11.07;7.90;;;30.10;66.90;;;;;;5030717;28;20456;-75
2021/06/18 11:33:46;;;;;;;8.57;6.47;;;30.20;66.30;;;;;;5019031;28;20752;-74
2021/06/18 11:36:22;;;;;;;6.83;6.23;;;30.30;66.60;;;;;;5029630;28;20488;-75
2021/06/18 11:38:58;;;;;;;7.97;6.37;;;30.30;65.40;;;;;;5047512;28;20448;-74
2021/06/18 11:41:29;;;;;;;9.83;6.77;;;30.60;64.80;;;;;;5031944;28;20875;-73
2021/06/18 11:44:04;;;;;;;7.90;6.50;;;30.70;64.10;;;;;;5031209;28;20445;-74
2021/06/18 11:46:33;;;;;;;8.13;5.90;;;30.80;57.70;;;;;;5026567;28;20464;-73
2021/06/18 11:49:11;;;;;;;10.60;5.80;;;31.00;60.20;;;;;;5012682;28;20830;-75
2021/06/18 11:51:39;;;;;;;11.43;6.27;;;31.20;55.90;;;;;;5014668;28;20475;-74
2021/06/18 11:54:06;;;;;;;8.47;6.43;;;31.30;54.50;;;;;;5032378;28;20456;-75
2021/06/18 11:56:36;;;;;;;6.83;5.77;;;31.40;54.30;;;;;;5043833;28;20467;-74
2021/06/18 11:59:14;;;;;;;10.47;5.60;;;31.50;55.10;;;;;;5051710;28;20797;-74
2021/06/18 12:01:41;;;;;;;6.73;5.73;;;31.60;53.30;;;;;;5035071;28;20471;-74
2021/06/18 12:04:16;;;;;;;7.43;6.10;;;31.60;53.70;;;;;;5014674;28;20502;-74
2021/06/18 12:06:43;;;;;;;6.53;5.30;;;31.60;53.60;;;;;;5020130;28;20471;-74
2021/06/18 12:09:22;;;;;;;8.23;5.63;;;31.60;53.40;;;;;;5032563;28;20444;-74
2021/06/18 12:12:00;;;;;;;9.03;7.50;;;31.70;52.60;;;;;;5051499;28;20462;-73
2021/06/18 12:14:37;;;;;;;12.47;7.13;;;31.70;54.40;;;;;;5051702;28;20419;-74
2021/06/18 12:17:06;;;;;;;9.30;6.77;;;31.80;55.10;;;;;;5037986;28;20471;-73
2021/06/18 12:19:44;;;;;;;9.43;6.57;;;31.90;51.30;;;;;;5031129;28;20450;-74
2021/06/18 12:22:19;;;;;;;9.23;6.30;;;31.80;52.10;;;;;;5029454;28;20464;-74
2021/06/18 12:24:54;;;;;;;13.10;5.87;;;31.90;52.40;;;;;;5031913;28;21005;-73
2021/06/18 12:27:25;;;;;;;7.27;6.03;;;32.00;49.80;;;;;;5013515;28;20469;-74
2021/06/18 12:29:55;;;;;;;8.70;5.80;;;32.00;49.70;;;;;;5031651;28;20635;-74
2021/06/18 12:32:26;;;;;;;13.37;6.37;;;32.00;50.20;;;;;;5030027;28;20513;-74
2021/06/18 12:35:03;;;;;;;8.70;6.00;;;32.10;51.00;;;;;;5030610;28;20831;-74
2021/06/18 12:37:32;;;;;;;11.20;5.80;;;32.20;49.50;;;;;;5012843;28;20507;-74
2021/06/18 12:40:05;;;;;;;7.97;6.00;;;32.10;53.20;;;;;;5029488;28;20475;-75
2021/06/18 12:42:42;;;;;;;8.93;6.10;;;32.20;50.60;;;;;;5031819;28;20775;-74
2021/06/18 12:45:21;;;;;;;8.70;6.07;;;32.20;50.30;;;;;;5020431;28;20534;-74
2021/06/18 12:48:14;;;;;;;9.80;6.13;;;32.30;50.00;;;;;;5041252;28;20440;-74
2021/06/18 12:50:53;;;;;;;9.47;5.20;;;32.30;48.80;;;;;;5029646;28;20518;-74
2021/06/18 12:53:31;;;;;;;12.03;6.13;;;32.30;47.60;;;;;;5030351;28;20440;-74
2021/06/18 12:56:12;;;;;;;9.43;5.80;;;32.30;49.70;;;;;;5030897;28;20470;-74